Time;durP1;ratioP1;P1;durP2;ratioP2;P2;SDS_P1;SDS_P2;PMS_P1;PMS_P2;Temp;Humidity;BMP_temperature;BMP_pressure;BME280_temperature;BME280_humidity;BME280_pressure;Samples;Min_cycle;Max_cycle;Signal;HPM_P1;HPM_P2
2021/10/04 00:00:40;;;;;;;3.00;2.53;;;23.40;62.80;;;;;;5203164;28;20068;-48
2021/10/04 00:03:13;;;;;;;3.35;2.60;;;23.40;62.80;;;;;;5208763;28;20149;-51
2021/10/04 00:05:45;;;;;;;3.08;2.45;;;23.30;62.80;;;;;;5210743;28;20052;-48
2021/10/04 00:08:18;;;;;;;3.63;2.33;;;23.30;62.80;;;;;;5212480;28;20037;-52
2021/10/04 00:10:51;;;;;;;4.53;2.67;;;23.30;62.80;;;;;;5208831;28;20041;-52
2021/10/04 00:13:24;;;;;;;;;;;23.30;62.90;;;;;;5210429;28;20481;-48
2021/10/04 00:15:58;;;;;;;3.30;2.90;;;23.20;62.90;;;;;;5211301;28;19924;-50
2021/10/04 00:18:30;;;;;;;3.60;2.35;;;23.30;63.00;;;;;;5207586;28;20052;-49
2021/10/04 00:21:02;;;;;;;4.05;2.50;;;23.30;63.00;;;;;;5193471;28;20056;-50
2021/10/04 00:23:35;;;;;;;2.85;2.30;;;23.20;62.90;;;;;;5209266;28;20041;-50
2021/10/04 00:26:07;;;;;;;2.67;2.22;;;23.20;63.00;;;;;;5187447;28;20049;-47
2021/10/04 00:28:40;;;;;;;3.75;2.22;;;23.30;63.10;;;;;;5211070;28;20413;-54
2021/10/04 00:31:13;;;;;;;2.45;2.10;;;23.20;63.00;;;;;;5207856;28;20049;-50
2021/10/04 00:33:45;;;;;;;3.05;2.38;;;23.20;63.00;;;;;;5208282;28;20099;-51
2021/10/04 00:36:18;;;;;;;3.75;2.15;;;23.20;63.10;;;;;;5209995;28;20049;-49
2021/10/04 00:38:50;;;;;;;5.13;2.50;;;23.20;63.10;;;;;;5210993;28;20425;-49
2021/10/04 00:41:23;;;;;;;2.92;2.00;;;23.20;63.20;;;;;;5211576;28;20305;-47
2021/10/04 00:43:56;;;;;;;3.20;2.40;;;23.20;63.20;;;;;;5207630;28;20061;-51
2021/10/04 00:46:29;;;;;;;;;;;23.20;63.20;;;;;;5209500;28;20530;-50
2021/10/04 00:49:03;;;;;;;2.40;1.90;;;23.10;63.30;;;;;;5209419;28;19925;-48
2021/10/04 00:51:35;;;;;;;3.08;2.78;;;23.10;63.30;;;;;;5209372;28;20056;-47
2021/10/04 00:54:08;;;;;;;4.18;2.35;;;23.20;63.40;;;;;;5191312;28;20049;-46
2021/10/04 00:56:41;;;;;;;4.10;2.70;;;23.10;63.40;;;;;;5209730;28;20048;-49
2021/10/04 00:59:13;;;;;;;4.38;2.58;;;23.10;63.40;;;;;;5207823;28;20041;-49
2021/10/04 01:01:46;;;;;;;4.60;2.65;;;23.20;63.60;;;;;;5206427;28;20437;-48
2021/10/04 01:04:25;;;;;;;4.32;2.33;;;23.10;63.50;;;;;;5205651;28;20040;-48
2021/10/04 01:06:59;;;;;;;3.72;2.40;;;23.10;63.50;;;;;;5206237;28;21248;-49
2021/10/04 01:09:31;;;;;;;2.28;2.08;;;23.10;63.60;;;;;;5208512;28;20565;-53
2021/10/04 01:12:05;;;;;;;3.47;2.80;;;23.10;63.60;;;;;;5209050;28;20052;-48
2021/10/04 01:14:37;;;;;;;;;;;23.10;63.60;;;;;;5205381;28;20052;-53
2021/10/04 01:17:09;;;;;;;2.90;2.47;;;23.10;63.70;;;;;;5207078;28;19931;-49
2021/10/04 01:19:42;;;;;;;3.42;2.60;;;23.10;63.80;;;;;;5208219;28;20060;-47
2021/10/04 01:22:16;;;;;;;4.47;2.40;;;23.10;63.80;;;;;;5205914;28;20047;-51
2021/10/04 01:24:49;;;;;;;4.35;2.53;;;23.10;63.80;;;;;;5205637;28;20310;-52
2021/10/04 01:27:21;;;;;;;3.30;2.25;;;23.10;63.90;;;;;;5208517;28;20060;-49
2021/10/04 01:29:54;;;;;;;4.57;2.20;;;23.10;63.90;;;;;;5188565;28;20055;-49
2021/10/04 01:32:26;;;;;;;3.03;2.03;;;23.00;63.90;;;;;;5205817;28;20508;-53
2021/10/04 01:34:58;;;;;;;3.55;2.47;;;23.00;63.90;;;;;;5208028;28;20078;-47
2021/10/04 01:37:31;;;;;;;4.60;2.75;;;23.00;64.00;;;;;;5206736;28;20425;-48
2021/10/04 01:40:05;;;;;;;3.47;2.35;;;23.00;64.00;;;;;;5208210;28;20055;-52
2021/10/04 01:42:39;;;;;;;3.20;2.50;;;23.00;64.00;;;;;;5207858;28;20422;-48
2021/10/04 01:45:14;;;;;;;;;;;23.00;64.00;;;;;;5208918;28;20478;-49
2021/10/04 01:47:46;;;;;;;3.30;2.95;;;23.00;64.00;;;;;;5209074;28;19928;-48
2021/10/04 01:50:20;;;;;;;3.60;2.53;;;23.00;64.00;;;;;;5205806;28;20037;-46
2021/10/04 01:52:52;;;;;;;;;;;23.00;64.10;;;;;;5207992;28;20804;-51
2021/10/04 01:55:25;;;;;;;6.40;2.35;;;23.00;64.10;;;;;;5209803;28;19924;-50
2021/10/04 01:57:57;;;;;;;3.72;2.30;;;23.00;64.20;;;;;;5207714;28;20048;-49
2021/10/04 02:00:30;;;;;;;2.90;2.17;;;23.00;64.20;;;;;;5187580;28;20060;-48
2021/10/04 02:03:02;;;;;;;2.33;1.70;;;23.00;64.20;;;;;;5208460;28;20053;-46
2021/10/04 02:05:35;;;;;;;4.97;2.73;;;22.90;64.10;;;;;;5208244;28;20057;-48
2021/10/04 02:08:07;;;;;;;4.93;2.85;;;23.00;64.20;;;;;;5211483;28;20756;-50
2021/10/04 02:10:41;;;;;;;8.00;2.85;;;22.90;64.20;;;;;;5210453;28;20049;-50
2021/10/04 02:13:14;;;;;;;4.72;2.47;;;22.90;64.20;;;;;;5212256;28;20037;-51
2021/10/04 02:15:46;;;;;;;3.28;2.42;;;22.90;64.20;;;;;;5210747;28;20052;-51
2021/10/04 02:18:19;;;;;;;2.50;2.30;;;22.90;64.20;;;;;;5212428;28;20056;-52
2021/10/04 02:20:51;;;;;;;3.20;2.65;;;22.90;64.30;;;;;;5209634;28;22027;-48
2021/10/04 02:23:23;;;;;;;5.30;2.95;;;22.90;64.20;;;;;;5213212;28;20052;-52
2021/10/04 02:25:56;;;;;;;2.55;2.30;;;22.90;64.20;;;;;;5209715;28;20051;-51
2021/10/04 02:28:28;;;;;;;3.70;2.35;;;22.90;64.20;;;;;;5212387;28;20037;-52
2021/10/04 02:31:01;;;;;;;4.95;2.78;;;23.00;64.30;;;;;;5208703;28;20048;-51
2021/10/04 02:33:33;;;;;;;2.60;2.30;;;22.90;64.30;;;;;;5210441;28;20524;-51
2021/10/04 02:36:06;;;;;;;2.67;2.30;;;22.90;64.30;;;;;;5210299;28;20057;-48
2021/10/04 02:38:38;;;;;;;3.08;2.45;;;22.90;64.30;;;;;;5210577;28;20049;-53
2021/10/04 02:41:10;;;;;;;3.00;2.30;;;22.90;64.30;;;;;;5185771;28;21203;-50
2021/10/04 02:43:43;;;;;;;3.05;2.38;;;22.90;64.30;;;;;;5211108;28;20056;-50
2021/10/04 02:46:16;;;;;;;3.05;2.45;;;22.90;64.30;;;;;;5210884;28;20052;-49
2021/10/04 02:48:49;;;;;;;3.47;2.67;;;22.90;64.30;;;;;;5210291;28;20325;-47
2021/10/04 02:51:21;;;;;;;2.70;2.20;;;22.90;64.30;;;;;;5212049;28;20536;-49
2021/10/04 02:53:53;;;;;;;3.35;2.70;;;22.90;64.30;;;;;;5209622;28;20061;-47
2021/10/04 02:56:26;;;;;;;2.40;2.20;;;22.90;64.30;;;;;;5212926;28;20485;-46
2021/10/04 02:58:59;;;;;;;3.42;2.80;;;22.90;64.40;;;;;;5212119;28;20060;-46
2021/10/04 03:01:31;;;;;;;3.05;2.30;;;22.90;64.40;;;;;;5207408;28;20049;-53
2021/10/04 03:04:04;;;;;;;4.17;2.47;;;22.90;64.40;;;;;;5209637;28;20497;-51
2021/10/04 03:06:36;;;;;;;2.97;2.30;;;22.80;64.40;;;;;;5205805;28;20359;-46
2021/10/04 03:09:09;;;;;;;2.75;2.40;;;22.80;64.30;;;;;;5190682;28;20049;-47
2021/10/04 03:11:41;;;;;;;7.68;2.40;;;22.80;64.40;;;;;;5208917;28;20045;-49
2021/10/04 03:14:14;;;;;;;3.50;2.33;;;22.80;64.40;;;;;;5209647;28;20592;-49
2021/10/04 03:16:46;;;;;;;3.47;2.25;;;22.80;64.40;;;;;;5208523;28;20430;-48
2021/10/04 03:19:19;;;;;;;4.15;2.60;;;22.80;64.30;;;;;;5209178;28;20641;-52
2021/10/04 03:21:52;;;;;;;2.58;2.28;;;22.80;64.40;;;;;;5207487;28;20060;-49
2021/10/04 03:24:24;;;;;;;3.83;2.45;;;22.80;64.30;;;;;;5211482;28;20067;-48
2021/10/04 03:26:57;;;;;;;3.08;1.92;;;22.80;64.30;;;;;;5212903;28;20045;-48
2021/10/04 03:29:29;;;;;;;3.53;2.67;;;22.80;64.30;;;;;;5210283;28;20048;-45
2021/10/04 03:32:02;;;;;;;5.20;2.17;;;22.80;64.20;;;;;;5209020;28;20417;-49
2021/10/04 03:34:39;;;;;;;2.20;1.90;;;22.80;64.30;;;;;;5211198;28;20413;-47
2021/10/04 03:37:11;;;;;;;5.13;2.03;;;22.80;64.30;;;;;;5193018;28;20045;-47
2021/10/04 03:39:44;;;;;;;3.30;2.15;;;22.80;64.30;;;;;;5212553;28;20045;-46
2021/10/04 03:42:16;;;;;;;2.97;2.00;;;22.80;64.30;;;;;;5183642;28;20095;-50
2021/10/04 03:44:49;;;;;;;2.70;2.20;;;22.80;64.20;;;;;;5210081;28;20068;-47
2021/10/04 03:47:21;;;;;;;2.78;2.10;;;22.80;64.30;;;;;;5208939;28;20049;-52
2021/10/04 03:49:53;;;;;;;3.83;1.83;;;22.80;64.20;;;;;;5208924;28;20264;-50
2021/10/04 03:52:26;;;;;;;2.88;1.90;;;22.80;64.30;;;;;;5210131;28;20417;-50
2021/10/04 03:54:59;;;;;;;2.17;1.92;;;22.80;64.30;;;;;;5208286;28;20041;-51
2021/10/04 03:57:32;;;;;;;2.75;2.30;;;22.80;64.20;;;;;;5209352;28;20045;-54
2021/10/04 04:00:15;;;;;;;2.30;2.00;;;22.80;64.10;;;;;;5208550;28;20048;-52
2021/10/04 04:02:48;;;;;;;2.83;1.95;;;22.80;64.10;;;;;;5210577;28;20052;-49
2021/10/04 04:05:21;;;;;;;2.22;1.90;;;22.80;64.10;;;;;;5199144;28;20048;-47
2021/10/04 04:07:54;;;;;;;3.05;2.08;;;22.80;64.10;;;;;;5192922;28;20040;-53
2021/10/04 04:10:26;;;;;;;3.80;1.98;;;22.80;64.30;;;;;;5181617;28;20373;-47
2021/10/04 04:12:59;;;;;;;2.77;2.07;;;22.80;64.30;;;;;;5196692;28;20063;-47
2021/10/04 04:15:31;;;;;;;4.55;2.05;;;22.80;64.40;;;;;;5198166;28;20033;-51
2021/10/04 04:18:04;;;;;;;3.30;1.70;;;22.80;64.40;;;;;;5193557;28;20052;-52
2021/10/04 04:20:36;;;;;;;2.53;1.95;;;22.80;64.40;;;;;;5185648;28;20484;-51
2021/10/04 04:23:09;;;;;;;2.53;2.08;;;22.80;64.50;;;;;;5189626;28;20045;-49
2021/10/04 04:25:41;;;;;;;2.78;1.45;;;22.80;64.70;;;;;;5197485;28;20475;-54
2021/10/04 04:28:13;;;;;;;2.15;1.60;;;22.80;64.60;;;;;;5192826;28;20048;-48
2021/10/04 04:30:46;;;;;;;2.38;1.90;;;22.80;64.60;;;;;;5202603;28;20049;-49
2021/10/04 04:33:22;;;;;;;3.25;2.13;;;22.80;64.70;;;;;;5198822;28;20501;-53
2021/10/04 04:35:54;;;;;;;3.85;1.98;;;22.80;64.60;;;;;;5206124;28;20547;-51
2021/10/04 04:38:27;;;;;;;4.03;2.00;;;22.80;64.70;;;;;;5201510;28;20566;-50
2021/10/04 04:40:59;;;;;;;4.30;1.98;;;22.80;64.60;;;;;;5178304;28;20049;-48
2021/10/04 04:43:32;;;;;;;3.10;2.00;;;22.80;64.70;;;;;;5201486;28;20411;-49
2021/10/04 04:46:04;;;;;;;2.10;1.67;;;22.80;64.70;;;;;;5202113;28;20049;-49
2021/10/04 04:48:37;;;;;;;8.50;2.63;;;22.80;64.60;;;;;;5199574;28;20053;-52
2021/10/04 04:51:09;;;;;;;2.67;1.90;;;22.80;64.50;;;;;;5201097;28;20045;-55
2021/10/04 04:53:42;;;;;;;3.67;2.00;;;22.80;64.60;;;;;;5201530;28;20049;-56
2021/10/04 04:56:15;;;;;;;3.55;2.00;;;22.80;64.70;;;;;;5200156;28;20059;-55
2021/10/04 04:58:48;;;;;;;7.00;2.28;;;22.80;64.80;;;;;;5174382;28;20053;-55
2021/10/04 05:01:20;;;;;;;3.88;1.70;;;22.80;64.90;;;;;;5161674;28;20049;-57
2021/10/04 05:03:53;;;;;;;9.00;2.70;;;22.70;62.10;;;;;;5187586;28;20049;-56
2021/10/04 05:06:25;;;;;;;6.00;2.40;;;22.60;64.20;;;;;;5201033;28;20516;-55
2021/10/04 05:08:58;;;;;;;29.33;4.68;;;22.60;65.20;;;;;;5151919;28;20045;-56
2021/10/04 05:11:30;;;;;;;14.70;3.25;;;22.60;65.20;;;;;;5191180;28;20598;-54
2021/10/04 05:14:03;;;;;;;18.70;2.70;;;22.70;65.30;;;;;;5170346;28;20049;-54
2021/10/04 05:16:35;;;;;;;18.77;3.80;;;22.70;65.40;;;;;;5197259;28;20052;-56
2021/10/04 05:19:08;;;;;;;15.15;2.50;;;22.70;65.30;;;;;;5194848;28;20497;-55
2021/10/04 05:21:40;;;;;;;14.68;3.10;;;22.70;65.20;;;;;;5198599;28;20049;-56
2021/10/04 05:24:13;;;;;;;12.95;2.97;;;22.70;65.30;;;;;;5188832;28;20052;-55
2021/10/04 05:26:45;;;;;;;13.65;2.75;;;22.70;65.20;;;;;;5204139;28;20810;-56
2021/10/04 05:29:18;;;;;;;12.88;2.45;;;22.70;65.30;;;;;;5207151;28;20060;-56
2021/10/04 05:31:51;;;;;;;6.15;2.35;;;22.70;65.40;;;;;;5204764;28;20049;-55
2021/10/04 05:34:32;;;;;;;11.98;2.00;;;22.80;65.30;;;;;;5199111;28;20037;-54
2021/10/04 05:37:06;;;;;;;12.27;3.37;;;22.80;65.50;;;;;;5204958;28;20528;-57
2021/10/04 05:39:38;;;;;;;10.90;2.67;;;22.80;65.40;;;;;;5200928;28;20797;-56
2021/10/04 05:42:11;;;;;;;18.33;2.90;;;22.80;65.40;;;;;;5204299;28;20044;-55
2021/10/04 05:44:45;;;;;;;9.77;2.55;;;22.80;65.40;;;;;;5206742;28;20056;-57
2021/10/04 05:47:18;;;;;;;10.23;2.28;;;22.80;65.40;;;;;;5195096;28;20402;-56
2021/10/04 05:49:50;;;;;;;12.88;2.40;;;22.80;65.30;;;;;;5159373;28;20294;-57
2021/10/04 05:52:23;;;;;;;10.73;2.35;;;22.80;65.30;;;;;;5194600;28;20060;-56
2021/10/04 05:54:55;;;;;;;7.53;2.35;;;22.80;65.30;;;;;;5196467;28;20045;-57
2021/10/04 05:57:27;;;;;;;10.85;2.97;;;22.80;65.30;;;;;;5197173;28;20045;-55
2021/10/04 06:00:00;;;;;;;12.48;2.38;;;22.80;65.20;;;;;;5176141;28;20053;-57
2021/10/04 06:02:39;;;;;;;13.45;2.53;;;22.80;65.20;;;;;;5192951;28;20435;-56
2021/10/04 06:05:12;;;;;;;9.80;2.22;;;22.80;65.20;;;;;;5175309;28;20057;-57
2021/10/04 06:07:45;;;;;;;6.23;1.90;;;22.80;65.20;;;;;;5164933;28;21114;-57
2021/10/04 06:10:17;;;;;;;5.55;2.15;;;22.80;65.80;;;;;;5190820;28;20053;-56
2021/10/04 06:12:51;;;;;;;10.00;2.43;;;22.80;65.20;;;;;;5186777;28;20110;-57
2021/10/04 06:15:24;;;;;;;4.88;1.75;;;22.80;65.20;;;;;;5198527;28;20045;-55
2021/10/04 06:17:56;;;;;;;5.47;2.22;;;22.80;65.20;;;;;;5209816;28;20045;-54
2021/10/04 06:20:28;;;;;;;7.47;2.22;;;22.80;65.20;;;;;;5207637;28;20084;-57
2021/10/04 06:23:01;;;;;;;8.18;2.00;;;22.80;65.10;;;;;;5174607;28;20056;-57
2021/10/04 06:25:34;;;;;;;7.30;1.73;;;22.90;65.20;;;;;;5202140;28;20421;-57
2021/10/04 06:28:07;;;;;;;5.80;2.05;;;22.80;65.10;;;;;;5207637;28;20052;-56
2021/10/04 06:30:39;;;;;;;6.70;2.05;;;22.90;65.20;;;;;;5203962;28;25652;-56
2021/10/04 06:33:12;;;;;;;7.25;2.38;;;22.80;65.10;;;;;;5203569;28;20881;-55
2021/10/04 06:35:46;;;;;;;3.85;1.80;;;22.90;65.10;;;;;;5212170;28;20527;-56
2021/10/04 06:38:18;;;;;;;8.52;2.10;;;22.90;65.10;;;;;;5193522;28;20060;-56
2021/10/04 06:40:51;;;;;;;9.05;2.35;;;22.90;65.10;;;;;;5204474;28;20056;-56
2021/10/04 06:43:23;;;;;;;5.30;2.03;;;22.90;65.10;;;;;;5192868;28;20049;-58
2021/10/04 06:45:55;;;;;;;6.90;1.88;;;22.90;65.20;;;;;;5200426;28;20493;-56
2021/10/04 06:48:28;;;;;;;7.93;1.88;;;22.90;65.20;;;;;;5202083;28;20045;-58
2021/10/04 06:51:00;;;;;;;8.95;2.45;;;22.90;65.20;;;;;;5201416;28;20123;-58
2021/10/04 06:53:34;;;;;;;7.43;1.95;;;22.90;65.20;;;;;;5196110;28;20045;-56
2021/10/04 06:56:07;;;;;;;;;;;22.90;65.20;;;;;;5202317;28;20044;-58
2021/10/04 06:58:39;;;;;;;6.35;2.08;;;22.80;65.00;;;;;;5185802;28;19928;-57
2021/10/04 07:01:12;;;;;;;4.80;2.17;;;22.80;65.20;;;;;;5202876;28;20054;-57
2021/10/04 07:03:45;;;;;;;6.65;3.38;;;22.80;65.10;;;;;;5205768;28;20524;-56
2021/10/04 07:06:17;;;;;;;12.98;2.17;;;22.80;64.30;;;;;;5180813;28;20041;-57
2021/10/04 07:08:50;;;;;;;13.18;2.70;;;22.80;66.00;;;;;;5194982;28;20037;-58
2021/10/04 07:11:23;;;;;;;16.98;3.20;;;22.80;66.40;;;;;;5201549;28;20045;-54
2021/10/04 07:13:56;;;;;;;21.13;3.42;;;22.80;67.60;;;;;;5199205;28;20052;-56
2021/10/04 07:16:28;;;;;;;19.65;3.65;;;22.80;68.30;;;;;;5184881;28;20056;-55
2021/10/04 07:19:03;;;;;;;14.50;3.00;;;22.80;67.40;;;;;;5203234;28;20530;-56
2021/10/04 07:21:35;;;;;;;16.42;3.75;;;22.80;67.20;;;;;;5202266;28;20048;-55
2021/10/04 07:24:08;;;;;;;15.13;3.10;;;22.80;67.20;;;;;;5201792;28;20751;-57
2021/10/04 07:26:41;;;;;;;21.67;3.90;;;22.80;67.00;;;;;;5208028;28;20052;-52
2021/10/04 07:29:14;;;;;;;23.63;4.05;;;22.80;67.20;;;;;;5162451;28;20045;-53
2021/10/04 07:31:47;;;;;;;21.65;3.10;;;22.90;67.30;;;;;;5200004;28;20405;-55
2021/10/04 07:34:20;;;;;;;15.60;2.88;;;22.90;67.10;;;;;;5209391;28;20596;-52
2021/10/04 07:36:52;;;;;;;13.68;3.28;;;22.80;66.90;;;;;;5207949;28;20052;-55
2021/10/04 07:39:25;;;;;;;7.07;2.60;;;22.90;66.80;;;;;;5204046;28;20064;-57
2021/10/04 07:41:58;;;;;;;14.70;3.58;;;22.90;66.70;;;;;;5205795;28;20525;-54
2021/10/04 07:44:30;;;;;;;13.23;2.97;;;22.90;66.60;;;;;;5205453;28;20061;-55
2021/10/04 07:47:03;;;;;;;17.20;3.22;;;22.90;66.50;;;;;;5204142;28;20041;-55
2021/10/04 07:49:35;;;;;;;8.37;3.53;;;22.90;66.40;;;;;;5205132;28;20048;-53
2021/10/04 07:52:08;;;;;;;;;;;22.90;66.30;;;;;;5213486;28;20040;-54
2021/10/04 07:54:41;;;;;;;10.88;2.63;;;22.90;66.30;;;;;;5207997;28;19935;-56
2021/10/04 07:57:18;;;;;;;12.00;2.72;;;22.90;66.30;;;;;;5207331;28;20053;-55
2021/10/04 07:59:51;;;;;;;9.10;2.70;;;22.90;66.20;;;;;;5204537;28;20297;-56
2021/10/04 08:02:23;;;;;;;11.32;2.55;;;22.90;66.20;;;;;;5177922;28;20053;-55
2021/10/04 08:04:56;;;;;;;8.52;2.83;;;22.90;66.20;;;;;;5202385;28;20049;-52
2021/10/04 08:07:29;;;;;;;8.43;2.38;;;22.90;66.10;;;;;;5198013;28;20057;-50
2021/10/04 08:10:02;;;;;;;11.50;2.95;;;22.90;66.20;;;;;;5200155;28;20264;-55
2021/10/04 08:12:35;;;;;;;;;;;22.90;66.00;;;;;;5187615;28;20048;-54
2021/10/04 08:15:08;;;;;;;9.48;2.50;;;22.90;66.00;;;;;;5202456;28;19925;-57
2021/10/04 08:17:41;;;;;;;;;;;22.90;66.00;;;;;;5193413;28;20049;-54
2021/10/04 08:20:13;;;;;;;7.90;2.75;;;22.90;66.00;;;;;;5166521;28;20004;-55
2021/10/04 08:22:45;;;;;;;9.90;2.60;;;22.90;66.00;;;;;;5195978;28;20738;-56
2021/10/04 08:25:19;;;;;;;7.25;2.20;;;22.90;65.90;;;;;;5204792;28;20053;-53
2021/10/04 08:27:52;;;;;;;6.63;2.30;;;22.90;65.80;;;;;;5210288;28;20067;-57
2021/10/04 08:30:24;;;;;;;9.40;2.07;;;22.90;66.00;;;;;;5200087;28;20040;-54
2021/10/04 08:32:57;;;;;;;10.55;2.58;;;22.90;65.90;;;;;;5214883;28;20044;-54
2021/10/04 08:35:29;;;;;;;7.45;2.13;;;23.00;65.80;;;;;;5212975;28;20041;-54
2021/10/04 08:38:02;;;;;;;6.25;2.53;;;23.00;65.80;;;;;;5215475;28;20044;-54
2021/10/04 08:40:37;;;;;;;6.13;2.83;;;23.00;65.70;;;;;;5216225;28;20037;-54
2021/10/04 08:43:09;;;;;;;8.95;2.45;;;23.00;65.70;;;;;;5194330;28;20037;-55
2021/10/04 08:45:44;;;;;;;8.63;2.38;;;23.00;65.70;;;;;;5188438;28;20044;-58
2021/10/04 08:48:17;;;;;;;5.22;1.98;;;23.00;65.70;;;;;;5200734;28;20045;-55
2021/10/04 08:50:50;;;;;;;5.50;2.22;;;23.00;65.70;;;;;;5193186;28;20041;-52
2021/10/04 08:53:24;;;;;;;9.02;2.65;;;23.00;65.70;;;;;;5177214;28;20185;-54
2021/10/04 08:55:56;;;;;;;;;;;23.00;65.70;;;;;;5205691;28;20045;-54
2021/10/04 08:58:32;;;;;;;3.80;1.70;;;22.90;65.60;;;;;;5194051;28;19928;-52
2021/10/04 09:01:05;;;;;;;6.10;2.30;;;22.90;65.80;;;;;;5205558;28;20052;-57
2021/10/04 09:03:51;;;;;;;4.15;2.15;;;22.90;65.70;;;;;;5207482;28;20056;-54
2021/10/04 09:06:38;;;;;;;5.07;1.90;;;22.90;65.70;;;;;;5198571;28;20053;-56
2021/10/04 09:09:13;;;;;;;4.53;1.63;;;22.90;65.70;;;;;;5200308;28;20055;-51
2021/10/04 09:11:48;;;;;;;2.92;1.50;;;22.90;65.60;;;;;;5196283;28;20722;-56
2021/10/04 09:14:26;;;;;;;7.25;2.00;;;22.90;65.60;;;;;;5198335;28;20388;-54
2021/10/04 09:17:02;;;;;;;5.32;2.20;;;22.90;65.60;;;;;;5203857;28;20052;-57
2021/10/04 09:19:42;;;;;;;4.35;1.60;;;23.00;65.70;;;;;;5208059;28;20044;-59
2021/10/04 09:22:21;;;;;;;4.40;2.00;;;22.90;65.60;;;;;;5206905;28;20420;-56
2021/10/04 09:25:04;;;;;;;3.38;1.92;;;23.00;65.70;;;;;;5202160;28;20049;-57
2021/10/04 09:27:39;;;;;;;5.05;1.83;;;23.00;65.70;;;;;;5189833;28;20049;-52
2021/10/04 09:30:23;;;;;;;5.20;1.90;;;22.90;65.60;;;;;;5203161;28;20052;-52
2021/10/04 09:32:59;;;;;;;;;;;22.90;65.60;;;;;;5198920;28;20685;-54
2021/10/04 09:35:33;;;;;;;5.32;1.65;;;22.90;65.60;;;;;;5200828;28;19924;-55
2021/10/04 09:38:05;;;;;;;4.65;1.95;;;22.90;65.60;;;;;;5196611;28;20053;-59
2021/10/04 09:40:43;;;;;;;2.63;1.58;;;22.90;65.70;;;;;;5199384;28;20421;-54
2021/10/04 09:43:27;;;;;;;3.67;1.88;;;22.90;65.70;;;;;;5200619;28;20049;-56
2021/10/04 09:46:09;;;;;;;2.53;1.65;;;22.90;65.70;;;;;;5181574;28;20344;-53
2021/10/04 09:48:59;;;;;;;3.30;1.60;;;22.90;65.80;;;;;;5199048;28;20060;-57
2021/10/04 09:51:32;;;;;;;3.45;1.55;;;22.90;65.80;;;;;;5198054;28;20040;-53
2021/10/04 09:54:11;;;;;;;3.42;1.50;;;22.90;65.80;;;;;;5208469;28;20048;-54
2021/10/04 09:56:44;;;;;;;6.18;1.92;;;22.90;65.80;;;;;;5206300;28;20417;-57
2021/10/04 09:59:16;;;;;;;8.43;1.73;;;22.90;65.80;;;;;;5208259;28;20041;-58
2021/10/04 10:01:50;;;;;;;4.25;1.60;;;22.90;65.80;;;;;;5191851;28;20498;-58
2021/10/04 10:04:22;;;;;;;3.00;1.55;;;22.90;65.80;;;;;;5208145;28;20807;-54
2021/10/04 10:06:54;;;;;;;3.47;1.60;;;22.90;65.80;;;;;;5209522;28;20040;-56
2021/10/04 10:09:33;;;;;;;2.75;1.90;;;22.90;65.80;;;;;;5207971;28;20052;-54
2021/10/04 10:12:08;;;;;;;3.08;1.42;;;22.90;65.90;;;;;;5206622;28;20523;-56
2021/10/04 10:14:46;;;;;;;4.20;1.77;;;22.90;65.90;;;;;;5199008;28;20048;-50
2021/10/04 10:17:30;;;;;;;5.15;1.83;;;22.90;65.90;;;;;;5199873;28;20044;-56
2021/10/04 10:20:03;;;;;;;3.20;1.30;;;22.90;65.80;;;;;;5192972;28;20332;-55
2021/10/04 10:22:45;;;;;;;5.32;1.63;;;22.90;65.80;;;;;;5198683;28;20052;-57
2021/10/04 10:25:43;;;;;;;2.67;1.50;;;22.90;65.80;;;;;;5198788;28;20056;-51
2021/10/04 10:28:31;;;;;;;3.13;1.42;;;22.90;65.80;;;;;;5199523;28;20057;-56
2021/10/04 10:31:03;;;;;;;5.18;1.90;;;22.90;65.80;;;;;;5203954;28;20051;-56
2021/10/04 10:33:49;;;;;;;4.77;1.80;;;22.90;65.90;;;;;;5200914;28;20040;-57
2021/10/04 10:36:57;;;;;;;4.72;1.52;;;22.80;65.90;;;;;;5202178;28;20513;-55
2021/10/04 10:39:42;;;;;;;3.20;1.63;;;22.90;65.80;;;;;;5198983;28;20053;-54
2021/10/04 10:42:35;;;;;;;3.28;1.60;;;22.90;65.90;;;;;;5206424;28;20534;-53
2021/10/04 10:45:09;;;;;;;4.60;1.63;;;22.80;65.80;;;;;;5205384;28;20041;-57
2021/10/04 10:47:41;;;;;;;6.93;1.70;;;22.90;65.90;;;;;;5201450;28;20557;-56
2021/10/04 10:50:39;;;;;;;4.20;1.65;;;22.90;66.00;;;;;;5203916;28;20436;-56
2021/10/04 10:53:26;;;;;;;3.40;1.52;;;22.90;66.00;;;;;;5189743;28;20612;-51
2021/10/04 10:56:05;;;;;;;3.72;1.55;;;22.90;66.20;;;;;;5208232;28;20405;-55
2021/10/04 10:58:38;;;;;;;5.72;1.83;;;22.90;66.10;;;;;;5205931;28;20063;-56
2021/10/04 11:01:13;;;;;;;5.50;1.60;;;22.80;66.10;;;;;;5204651;28;20532;-54
2021/10/04 11:03:53;;;;;;;4.35;1.58;;;22.90;66.20;;;;;;5184289;28;20053;-56
2021/10/04 11:06:41;;;;;;;4.32;1.45;;;22.90;66.20;;;;;;5206364;28;20041;-56
2021/10/04 11:09:14;;;;;;;4.68;1.70;;;22.90;66.10;;;;;;5205521;28;20037;-55
2021/10/04 11:11:56;;;;;;;4.05;1.65;;;22.80;66.80;;;;;;5205147;28;20052;-56
2021/10/04 11:14:49;;;;;;;16.83;2.53;;;22.90;66.10;;;;;;5202616;28;20045;-54
2021/10/04 11:17:21;;;;;;;4.22;1.80;;;22.90;66.20;;;;;;5194355;28;20045;-54
2021/10/04 11:19:55;;;;;;;2.38;1.60;;;22.80;66.20;;;;;;5194412;28;20621;-56
2021/10/04 11:22:27;;;;;;;3.15;1.50;;;22.80;66.10;;;;;;5189722;28;20056;-57
2021/10/04 11:25:00;;;;;;;8.30;1.90;;;22.90;66.20;;;;;;5190549;28;20417;-54
2021/10/04 11:27:47;;;;;;;6.10;1.85;;;22.90;66.20;;;;;;5195429;28;20056;-54
2021/10/04 11:30:19;;;;;;;6.10;1.92;;;22.90;66.30;;;;;;5195325;28;20045;-56
2021/10/04 11:33:08;;;;;;;6.53;1.70;;;22.90;66.50;;;;;;5195872;28;20068;-56
2021/10/04 11:35:57;;;;;;;6.90;1.75;;;22.90;66.50;;;;;;5194793;28;20052;-57
2021/10/04 11:38:35;;;;;;;9.27;1.73;;;22.90;66.60;;;;;;5180531;28;20053;-53
2021/10/04 11:41:07;;;;;;;4.32;1.50;;;22.90;66.60;;;;;;5193059;28;20037;-54
2021/10/04 11:43:44;;;;;;;6.63;1.95;;;22.90;66.60;;;;;;5202820;28;20696;-57
2021/10/04 11:46:20;;;;;;;4.10;1.45;;;22.90;66.60;;;;;;5201358;28;20045;-54
2021/10/04 11:49:09;;;;;;;7.38;1.98;;;22.90;66.60;;;;;;5200707;28;20049;-55
2021/10/04 11:51:50;;;;;;;7.50;2.00;;;22.90;66.70;;;;;;5199194;28;20060;-56
2021/10/04 11:54:50;;;;;;;5.85;1.88;;;22.90;66.80;;;;;;5201584;28;20061;-55
2021/10/04 11:57:22;;;;;;;5.13;1.70;;;22.90;67.00;;;;;;5210579;28;20056;-56
2021/10/04 11:59:59;;;;;;;6.72;1.60;;;22.90;67.00;;;;;;5210663;28;20644;-55
2021/10/04 12:02:40;;;;;;;6.20;1.75;;;22.90;67.10;;;;;;5211339;28;20497;-55
2021/10/04 12:05:28;;;;;;;21.40;2.08;;;22.90;67.20;;;;;;5212897;28;20057;-55
2021/10/04 12:08:09;;;;;;;6.30;1.42;;;22.90;67.20;;;;;;5212707;28;20060;-56
2021/10/04 12:10:54;;;;;;;15.75;2.00;;;22.90;67.20;;;;;;5210847;28;20041;-58
2021/10/04 12:13:32;;;;;;;5.28;1.88;;;22.90;67.20;;;;;;5203721;28;20045;-56
2021/10/04 12:16:10;;;;;;;5.93;2.00;;;22.90;67.30;;;;;;5181783;28;20045;-57
2021/10/04 12:18:45;;;;;;;3.72;1.70;;;22.90;67.30;;;;;;5208402;28;20555;-55
2021/10/04 12:21:31;;;;;;;4.38;1.70;;;22.90;67.30;;;;;;5205120;28;20044;-55
2021/10/04 12:24:11;;;;;;;5.10;1.67;;;23.00;67.50;;;;;;5205014;28;20053;-57
2021/10/04 12:27:09;;;;;;;5.60;1.90;;;23.00;67.50;;;;;;5204067;28;20053;-55
2021/10/04 12:30:00;;;;;;;4.82;1.70;;;23.00;67.40;;;;;;5204107;28;20049;-57
2021/10/04 12:32:46;;;;;;;3.97;1.70;;;23.00;67.40;;;;;;5204418;28;20053;-54
2021/10/04 12:35:26;;;;;;;2.90;1.50;;;23.00;67.50;;;;;;5209773;28;20041;-55
2021/10/04 12:38:03;;;;;;;6.47;2.10;;;23.00;67.50;;;;;;5207582;28;20044;-53
2021/10/04 12:40:48;;;;;;;10.70;1.70;;;23.00;67.50;;;;;;5197863;28;20041;-54
2021/10/04 12:43:27;;;;;;;6.25;1.98;;;23.00;67.60;;;;;;5202374;28;20057;-52
2021/10/04 12:46:10;;;;;;;7.30;1.73;;;23.00;67.60;;;;;;5177967;28;20528;-55
2021/10/04 12:48:46;;;;;;;12.70;2.27;;;23.00;67.60;;;;;;5191906;28;20049;-55
2021/10/04 12:51:20;;;;;;;4.22;1.27;;;23.00;67.60;;;;;;5199716;28;20445;-56
2021/10/04 12:53:55;;;;;;;5.53;1.80;;;23.00;67.70;;;;;;5197793;28;20047;-54
2021/10/04 12:56:33;;;;;;;9.00;2.00;;;23.00;67.60;;;;;;5202258;28;20052;-58
2021/10/04 12:59:10;;;;;;;4.05;1.63;;;23.10;67.80;;;;;;5196852;28;20051;-55
2021/10/04 13:01:52;;;;;;;3.33;1.60;;;23.10;67.80;;;;;;5203183;28;20057;-54
2021/10/04 13:04:37;;;;;;;8.57;1.77;;;23.10;67.90;;;;;;5199083;28;20052;-57
2021/10/04 13:07:09;;;;;;;10.35;2.42;;;23.00;67.90;;;;;;5200721;28;20064;-57
2021/10/04 13:09:42;;;;;;;6.27;2.10;;;23.00;67.80;;;;;;5181374;28;20482;-57
2021/10/04 13:12:16;;;;;;;12.15;1.77;;;23.10;67.90;;;;;;5198680;28;20291;-57
2021/10/04 13:14:48;;;;;;;8.50;1.65;;;23.10;67.90;;;;;;5193801;28;20060;-53
2021/10/04 13:17:21;;;;;;;7.38;2.08;;;23.10;67.90;;;;;;5195431;28;20374;-57
2021/10/04 13:19:54;;;;;;;10.18;2.20;;;23.10;68.00;;;;;;5190245;28;21215;-55
2021/10/04 13:22:26;;;;;;;4.55;1.90;;;23.10;68.10;;;;;;5202325;28;20309;-56
2021/10/04 13:24:58;;;;;;;5.47;1.90;;;23.10;68.10;;;;;;5201831;28;20045;-55
2021/10/04 13:27:31;;;;;;;6.38;1.52;;;23.10;67.90;;;;;;5189155;28;20045;-55